createdAt,value
2023-09-19T00:00:50.893Z,976.95
2023-09-19T00:01:50.900Z,976.97
2023-09-19T00:02:50.971Z,976.98
2023-09-19T00:03:51.155Z,976.89
2023-09-19T00:04:50.925Z,976.94
2023-09-19T00:05:50.712Z,976.89
2023-09-19T00:06:50.981Z,976.88
2023-09-19T00:07:50.727Z,976.88
2023-09-19T00:08:51.095Z,976.81
2023-09-19T00:09:50.725Z,976.85
2023-09-19T00:10:50.912Z,976.77
2023-09-19T00:11:50.836Z,976.80
2023-09-19T00:12:50.638Z,976.77
2023-09-19T00:13:50.621Z,976.81
2023-09-19T00:14:50.866Z,976.79
2023-09-19T00:15:51.301Z,976.80
2023-09-19T00:16:50.768Z,976.77
2023-09-19T00:17:50.592Z,976.80
2023-09-19T00:18:50.544Z,976.78
2023-09-19T00:19:50.517Z,976.76
2023-09-19T00:20:51.126Z,976.80
2023-09-19T00:21:50.574Z,976.77
2023-09-19T00:22:50.478Z,976.80
2023-09-19T00:23:50.463Z,976.72
2023-09-19T00:24:50.501Z,976.72
2023-09-19T00:25:50.460Z,976.72
2023-09-19T00:26:50.516Z,976.70
2023-09-19T00:27:50.405Z,976.79
2023-09-19T00:28:50.457Z,976.67
2023-09-19T00:29:50.377Z,976.75
2023-09-19T00:30:50.405Z,976.75
2023-09-19T00:31:50.542Z,976.71
2023-09-19T00:32:50.354Z,976.73
2023-09-19T00:33:50.342Z,976.74
2023-09-19T00:34:50.311Z,976.71
2023-09-19T00:35:50.313Z,976.69
2023-09-19T00:36:50.672Z,976.68
2023-09-19T00:37:50.537Z,976.63
2023-09-19T00:38:50.250Z,976.70
2023-09-19T00:39:50.256Z,976.66
2023-09-19T00:40:50.284Z,976.70
2023-09-19T00:41:50.215Z,976.66
2023-09-19T00:42:50.442Z,976.69
2023-09-19T00:43:50.438Z,976.73
2023-09-19T00:44:50.234Z,976.69
2023-09-19T00:45:50.207Z,976.75
2023-09-19T00:46:50.208Z,976.79
2023-09-19T00:47:50.788Z,976.79
2023-09-19T00:48:50.132Z,976.74
2023-09-19T00:49:50.116Z,976.79
2023-09-19T00:50:50.240Z,976.80
2023-09-19T00:51:50.087Z,976.82
2023-09-19T00:52:50.153Z,976.82
2023-09-19T00:53:50.216Z,976.87
2023-09-19T00:54:50.252Z,976.91
2023-09-19T00:55:50.105Z,976.91
2023-09-19T00:56:50.018Z,976.93
2023-09-19T00:57:50.085Z,976.96
2023-09-19T00:58:50.300Z,976.99
2023-09-19T00:59:50.096Z,976.93
2023-09-19T01:00:49.997Z,976.94
2023-09-19T01:01:50.061Z,976.95
2023-09-19T01:02:50.204Z,976.93
2023-09-19T01:03:50.073Z,976.97
2023-09-19T01:04:49.962Z,977.00
2023-09-19T01:05:49.911Z,977.00
2023-09-19T01:06:49.931Z,976.99
2023-09-19T01:07:50.249Z,977.02
2023-09-19T01:08:49.950Z,977.01
2023-09-19T01:09:49.977Z,977.01
2023-09-19T01:10:49.877Z,976.95
2023-09-19T01:11:49.896Z,976.95
2023-09-19T01:12:49.905Z,976.97
2023-09-19T01:13:49.798Z,976.94
2023-09-19T01:14:49.917Z,976.94
2023-09-19T01:15:49.795Z,976.94
2023-09-19T01:16:50.066Z,976.99
2023-09-19T01:17:49.858Z,977.01
2023-09-19T01:18:49.807Z,976.98
2023-09-19T01:19:49.849Z,976.98
2023-09-19T01:20:49.684Z,976.96
2023-09-19T01:21:49.850Z,976.99
2023-09-19T01:22:49.845Z,976.95
2023-09-19T01:23:49.847Z,977.03
2023-09-19T01:24:49.704Z,977.04
2023-09-19T01:25:49.668Z,976.99
2023-09-19T01:26:49.702Z,977.03
2023-09-19T01:27:49.704Z,977.00
2023-09-19T01:28:49.660Z,977.03
2023-09-19T01:29:49.772Z,977.05
2023-09-19T01:30:49.689Z,977.05
2023-09-19T01:31:49.534Z,977.05
2023-09-19T01:32:49.591Z,977.06
2023-09-19T01:33:49.529Z,977.01
2023-09-19T01:34:49.841Z,977.06
2023-09-19T01:35:49.461Z,977.04
2023-09-19T01:36:49.445Z,976.98
2023-09-19T01:37:49.555Z,976.98
2023-09-19T01:38:49.420Z,977.00
2023-09-19T01:39:49.455Z,977.00
2023-09-19T01:40:50.354Z,976.98
2023-09-19T01:41:49.372Z,976.93
2023-09-19T01:42:49.605Z,976.98
2023-09-19T01:43:49.628Z,976.91
2023-09-19T01:44:49.311Z,976.92
2023-09-19T01:45:49.388Z,976.88
2023-09-19T01:46:49.343Z,976.86
2023-09-19T01:47:49.333Z,976.83
2023-09-19T01:48:49.378Z,976.75
2023-09-19T01:49:49.468Z,976.78
2023-09-19T01:50:49.277Z,976.79
2023-09-19T01:51:49.228Z,976.79
2023-09-19T01:52:49.299Z,976.78
2023-09-19T01:53:49.557Z,976.81
2023-09-19T01:54:49.198Z,976.84
2023-09-19T01:55:49.233Z,976.84
2023-09-19T01:56:49.153Z,976.85
2023-09-19T01:57:49.145Z,976.85
2023-09-19T01:58:49.696Z,976.84
2023-09-19T01:59:49.104Z,976.82
2023-09-19T02:00:49.132Z,976.81
2023-09-19T02:01:49.196Z,976.77
2023-09-19T02:02:49.238Z,976.72
2023-09-19T02:03:49.621Z,976.79
2023-09-19T02:04:49.097Z,976.71
2023-09-19T02:05:49.832Z,976.73
2023-09-19T02:06:49.035Z,976.69
2023-09-19T02:07:49.124Z,976.65
2023-09-19T02:08:49.387Z,976.61
2023-09-19T02:09:49.153Z,976.62
2023-09-19T02:10:49.011Z,976.56
2023-09-19T02:11:48.945Z,976.56
2023-09-19T02:12:48.976Z,976.58
2023-09-19T02:13:49.165Z,976.47
2023-09-19T02:14:49.060Z,976.42
2023-09-19T02:15:49.172Z,976.31
2023-09-19T02:16:48.974Z,976.36
2023-09-19T02:17:48.919Z,976.37
2023-09-19T02:18:48.965Z,976.40
2023-09-19T02:19:49.324Z,976.40
2023-09-19T02:20:48.954Z,976.42
2023-09-19T02:21:48.830Z,976.37
2023-09-19T02:22:48.897Z,976.40
2023-09-19T02:23:48.798Z,976.40
2023-09-19T02:24:48.882Z,976.35
2023-09-19T02:25:48.818Z,976.31
2023-09-19T02:26:48.963Z,976.30
2023-09-19T02:27:48.817Z,976.29
2023-09-19T02:28:48.788Z,976.27
2023-09-19T02:29:48.913Z,976.30
2023-09-19T02:30:48.960Z,976.24
2023-09-19T02:31:48.850Z,976.32
2023-09-19T02:32:48.716Z,976.25
2023-09-19T02:33:48.672Z,976.31
2023-09-19T02:34:48.785Z,976.29
2023-09-19T02:35:48.814Z,976.31
2023-09-19T02:36:48.658Z,976.31
2023-09-19T02:37:48.663Z,976.30
2023-09-19T02:38:48.640Z,976.36
2023-09-19T02:39:48.687Z,976.35
2023-09-19T02:40:48.675Z,976.37
2023-09-19T02:41:48.801Z,976.40
2023-09-19T02:42:48.591Z,976.38
2023-09-19T02:43:48.577Z,976.40
2023-09-19T02:44:48.732Z,976.42
2023-09-19T02:45:48.794Z,976.43
2023-09-19T02:46:48.717Z,976.44
2023-09-19T02:47:48.674Z,976.49
2023-09-19T02:48:48.451Z,976.49
2023-09-19T02:49:48.689Z,976.45
2023-09-19T02:50:48.436Z,976.50
2023-09-19T02:51:48.423Z,976.51
2023-09-19T02:52:48.525Z,976.50
2023-09-19T02:53:48.399Z,976.51
2023-09-19T02:54:48.458Z,976.58
2023-09-19T02:55:48.580Z,976.58
2023-09-19T02:56:48.345Z,976.62
2023-09-19T02:57:48.358Z,976.54
2023-09-19T02:58:48.400Z,976.54
2023-09-19T02:59:48.433Z,976.57
2023-09-19T03:00:48.358Z,976.54
2023-09-19T03:01:48.362Z,976.57
2023-09-19T03:02:48.363Z,976.60
2023-09-19T03:03:48.288Z,976.55
2023-09-19T03:04:48.397Z,976.63
2023-09-19T03:05:48.802Z,976.64
2023-09-19T03:06:48.967Z,976.71
2023-09-19T03:07:48.884Z,976.69
2023-09-19T03:08:48.200Z,976.71
2023-09-19T03:09:48.296Z,976.71
2023-09-19T03:10:48.346Z,976.73
2023-09-19T03:11:48.169Z,976.66
2023-09-19T03:12:48.141Z,976.72
2023-09-19T03:13:48.314Z,976.74
2023-09-19T03:14:48.410Z,976.74
2023-09-19T03:15:48.495Z,976.77
2023-09-19T03:16:48.215Z,976.76
2023-09-19T03:17:48.307Z,976.74
2023-09-19T03:18:48.061Z,976.74
2023-09-19T03:19:48.299Z,976.76
2023-09-19T03:20:48.051Z,976.78
2023-09-19T03:21:48.130Z,976.80
2023-09-19T03:22:48.051Z,976.83
2023-09-19T03:23:48.287Z,976.87
2023-09-19T03:24:48.087Z,976.88
2023-09-19T03:25:48.245Z,976.91
2023-09-19T03:26:47.985Z,976.91
2023-09-19T03:27:48.179Z,976.93
2023-09-19T03:28:47.997Z,977.02
2023-09-19T03:29:48.004Z,977.00
2023-09-19T03:30:48.901Z,976.98
2023-09-19T03:31:47.994Z,976.98
2023-09-19T03:32:48.111Z,976.94
2023-09-19T03:33:48.193Z,977.02
2023-09-19T03:34:48.172Z,976.99
2023-09-19T03:35:47.839Z,977.00
2023-09-19T03:36:47.845Z,977.04
2023-09-19T03:37:47.970Z,977.07
2023-09-19T03:38:47.820Z,977.09
2023-09-19T03:39:47.842Z,977.05
2023-09-19T03:40:48.142Z,976.97
2023-09-19T03:41:47.872Z,977.04
2023-09-19T03:42:48.305Z,976.99
2023-09-19T03:43:47.887Z,977.00
2023-09-19T03:44:47.745Z,977.02
2023-09-19T03:45:47.935Z,977.03
2023-09-19T03:46:47.761Z,977.03
2023-09-19T03:47:47.751Z,976.98
2023-09-19T03:48:47.697Z,976.95
2023-09-19T03:49:47.836Z,976.98
2023-09-19T03:50:47.788Z,976.99
2023-09-19T03:51:47.618Z,977.01
2023-09-19T03:52:47.728Z,976.98
2023-09-19T03:53:47.651Z,977.03
2023-09-19T03:54:47.605Z,977.06
2023-09-19T03:55:48.036Z,977.05
2023-09-19T03:56:48.667Z,976.99
2023-09-19T03:57:47.555Z,976.97
2023-09-19T03:58:47.605Z,976.96
2023-09-19T03:59:47.859Z,976.99
2023-09-19T04:00:47.603Z,976.95
2023-09-19T04:01:47.567Z,976.95
2023-09-19T04:02:47.666Z,976.97
2023-09-19T04:03:47.606Z,976.93
2023-09-19T04:04:47.747Z,976.93
2023-09-19T04:05:47.650Z,976.91
2023-09-19T04:06:47.697Z,976.90
2023-09-19T04:07:47.574Z,976.93
2023-09-19T04:08:47.459Z,976.90
2023-09-19T04:09:47.536Z,976.97
2023-09-19T04:10:47.600Z,976.99
2023-09-19T04:11:47.494Z,976.95
2023-09-19T04:12:47.375Z,976.95
2023-09-19T04:13:47.423Z,976.94
2023-09-19T04:14:47.358Z,977.00
2023-09-19T04:15:47.463Z,976.97
2023-09-19T04:16:47.421Z,977.00
2023-09-19T04:17:47.423Z,977.00
2023-09-19T04:18:47.355Z,977.04
2023-09-19T04:19:47.315Z,977.08
2023-09-19T04:20:47.470Z,977.08
2023-09-19T04:21:47.215Z,977.11
2023-09-19T04:22:47.388Z,977.06
2023-09-19T04:23:47.217Z,977.11
2023-09-19T04:24:47.811Z,977.15
2023-09-19T04:25:47.353Z,977.15
2023-09-19T04:26:47.199Z,977.17
2023-09-19T04:27:47.194Z,977.13
2023-09-19T04:28:47.281Z,977.17
2023-09-19T04:29:47.210Z,977.17
2023-09-19T04:30:47.183Z,977.21
2023-09-19T04:31:47.278Z,977.21
2023-09-19T04:32:47.418Z,977.26
2023-09-19T04:33:47.091Z,977.24
2023-09-19T04:34:47.086Z,977.22
2023-09-19T04:35:47.115Z,977.24
2023-09-19T04:36:47.124Z,977.26
2023-09-19T04:37:47.039Z,977.23
2023-09-19T04:38:47.201Z,977.26
2023-09-19T04:39:47.202Z,977.25
2023-09-19T04:40:47.187Z,977.24
2023-09-19T04:41:47.220Z,977.27
2023-09-19T04:42:47.050Z,977.25
2023-09-19T04:43:46.932Z,977.29
2023-09-19T04:44:47.372Z,977.29
2023-09-19T04:45:47.226Z,977.24
2023-09-19T04:46:47.128Z,977.30
2023-09-19T04:47:46.965Z,977.30
2023-09-19T04:48:47.037Z,977.32
2023-09-19T04:49:47.014Z,977.34
2023-09-19T04:50:46.959Z,977.30
2023-09-19T04:51:46.881Z,977.31
2023-09-19T04:52:46.901Z,977.37
2023-09-19T04:53:47.008Z,977.36
2023-09-19T04:54:47.331Z,977.36
2023-09-19T04:55:47.035Z,977.35
2023-09-19T04:56:46.764Z,977.32
2023-09-19T04:57:46.927Z,977.33
2023-09-19T04:58:46.791Z,977.29
2023-09-19T04:59:46.729Z,977.34
2023-09-19T05:00:46.819Z,977.34
2023-09-19T05:01:46.813Z,977.33
2023-09-19T05:02:46.878Z,977.38
2023-09-19T05:03:46.681Z,977.35
2023-09-19T05:04:46.718Z,977.42
2023-09-19T05:05:46.767Z,977.48
2023-09-19T05:06:47.209Z,977.51
2023-09-19T05:07:46.666Z,977.55
2023-09-19T05:08:46.610Z,977.56
2023-09-19T05:09:46.894Z,977.58
2023-09-19T05:10:46.807Z,977.63
2023-09-19T05:11:46.672Z,977.62
2023-09-19T05:12:46.618Z,977.66
2023-09-19T05:13:46.638Z,977.67
2023-09-19T05:14:46.714Z,977.66
2023-09-19T05:15:46.655Z,977.63
2023-09-19T05:16:46.524Z,977.68
2023-09-19T05:17:46.529Z,977.70
2023-09-19T05:18:46.475Z,977.70
2023-09-19T05:19:46.508Z,977.74
2023-09-19T05:20:46.567Z,977.69
2023-09-19T05:21:46.431Z,977.70
2023-09-19T05:22:47.403Z,977.71
2023-09-19T05:23:46.428Z,977.75
2023-09-19T05:24:46.401Z,977.74
2023-09-19T05:25:46.399Z,977.70
2023-09-19T05:26:46.568Z,977.69
2023-09-19T05:27:46.346Z,977.73
2023-09-19T05:28:46.412Z,977.77
2023-09-19T05:29:46.302Z,977.83
2023-09-19T05:30:48.873Z,977.85
2023-09-19T05:31:46.489Z,977.85
2023-09-19T05:32:46.314Z,977.87
2023-09-19T05:33:46.288Z,977.91
2023-09-19T05:34:46.334Z,977.90
2023-09-19T05:35:46.248Z,977.86
2023-09-19T05:36:46.528Z,977.87
2023-09-19T05:37:46.280Z,977.92
2023-09-19T05:38:46.419Z,977.91
2023-09-19T05:39:46.253Z,977.95
2023-09-19T05:40:46.494Z,977.98
2023-09-19T05:41:46.418Z,978.00
2023-09-19T05:42:46.425Z,977.92
2023-09-19T05:43:46.158Z,977.99
2023-09-19T05:44:46.165Z,978.03
2023-09-19T05:45:46.104Z,977.98
2023-09-19T05:46:46.308Z,978.02
2023-09-19T05:47:46.103Z,978.03
2023-09-19T05:48:46.073Z,978.07
2023-09-19T05:49:46.102Z,978.09
2023-09-19T05:50:46.046Z,978.12
2023-09-19T05:51:46.106Z,978.15
2023-09-19T05:52:46.137Z,978.13
2023-09-19T05:53:46.236Z,978.17
2023-09-19T05:54:46.119Z,978.19
2023-09-19T05:55:45.961Z,978.22
2023-09-19T05:56:46.283Z,978.18
2023-09-19T05:57:46.245Z,978.18
2023-09-19T05:58:45.961Z,978.25
2023-09-19T05:59:45.931Z,978.30
2023-09-19T06:00:46.155Z,978.27
2023-09-19T06:01:46.000Z,978.27
2023-09-19T06:02:45.933Z,978.33
2023-09-19T06:03:46.037Z,978.33
2023-09-19T06:04:46.124Z,978.34
2023-09-19T06:05:45.920Z,978.35
2023-09-19T06:06:45.974Z,978.40
2023-09-19T06:07:45.977Z,978.43
2023-09-19T06:08:46.200Z,978.44
2023-09-19T06:09:45.927Z,978.39
2023-09-19T06:10:45.778Z,978.42
2023-09-19T06:11:45.834Z,978.39
2023-09-19T06:12:45.786Z,978.41
2023-09-19T06:13:45.728Z,978.40
2023-09-19T06:14:45.757Z,978.45
2023-09-19T06:15:45.921Z,978.41
2023-09-19T06:16:45.803Z,978.44
2023-09-19T06:17:45.669Z,978.46
2023-09-19T06:18:45.772Z,978.45
2023-09-19T06:19:45.691Z,978.41
2023-09-19T06:20:46.315Z,978.43
2023-09-19T06:21:45.688Z,978.47
2023-09-19T06:22:45.687Z,978.42
2023-09-19T06:23:45.604Z,978.43
2023-09-19T06:24:45.556Z,978.50
2023-09-19T06:25:45.633Z,978.45
2023-09-19T06:26:45.855Z,978.46
2023-09-19T06:27:45.582Z,978.45
2023-09-19T06:28:45.796Z,978.46
2023-09-19T06:29:45.594Z,978.50
2023-09-19T06:30:45.475Z,978.46
2023-09-19T06:31:45.872Z,978.50
2023-09-19T06:32:45.669Z,978.46
2023-09-19T06:33:45.665Z,978.49
2023-09-19T06:34:45.488Z,978.47
2023-09-19T06:35:45.432Z,978.46
2023-09-19T06:36:45.559Z,978.49
2023-09-19T06:37:45.444Z,978.54
2023-09-19T06:38:45.380Z,978.47
2023-09-19T06:39:45.378Z,978.56
2023-09-19T06:40:45.550Z,978.58
2023-09-19T06:41:45.444Z,978.59
2023-09-19T06:42:45.485Z,978.58
2023-09-19T06:43:45.366Z,978.61
2023-09-19T06:44:45.308Z,978.64
2023-09-19T06:45:45.296Z,978.68
2023-09-19T06:46:45.574Z,978.62
2023-09-19T06:47:45.349Z,978.67
2023-09-19T06:48:45.266Z,978.69
2023-09-19T06:49:45.334Z,978.71
2023-09-19T06:50:45.503Z,978.74
2023-09-19T06:51:45.368Z,978.71
2023-09-19T06:52:45.501Z,978.71
2023-09-19T06:53:45.272Z,978.68
2023-09-19T06:54:45.158Z,978.74
2023-09-19T06:55:45.367Z,978.81
2023-09-19T06:56:45.248Z,978.78
2023-09-19T06:57:45.148Z,978.77
2023-09-19T06:58:45.178Z,978.80
2023-09-19T06:59:45.085Z,978.76
2023-09-19T07:00:45.116Z,978.81
2023-09-19T07:01:45.519Z,978.79
2023-09-19T07:02:45.195Z,978.83
2023-09-19T07:03:45.048Z,978.85
2023-09-19T07:04:45.054Z,978.82
2023-09-19T07:05:45.022Z,978.77
2023-09-19T07:06:45.249Z,978.85
2023-09-19T07:07:45.304Z,978.81
2023-09-19T07:08:44.960Z,978.87
2023-09-19T07:09:44.974Z,978.87
2023-09-19T07:10:44.973Z,978.84
2023-09-19T07:11:44.995Z,978.90
2023-09-19T07:12:45.118Z,978.86
2023-09-19T07:13:44.980Z,978.98
2023-09-19T07:14:45.166Z,979.01
2023-09-19T07:15:45.008Z,978.97
2023-09-19T07:16:44.972Z,979.05
2023-09-19T07:17:44.880Z,979.02
2023-09-19T07:18:44.832Z,979.09
2023-09-19T07:19:44.888Z,979.06
2023-09-19T07:20:44.790Z,979.06
2023-09-19T07:21:45.071Z,979.07
2023-09-19T07:22:44.908Z,979.13
2023-09-19T07:23:44.771Z,979.15
2023-09-19T07:24:44.775Z,979.11
2023-09-19T07:25:44.786Z,979.09
2023-09-19T07:26:44.922Z,979.18
2023-09-19T07:27:44.726Z,979.15
2023-09-19T07:28:44.834Z,979.10
2023-09-19T07:29:45.065Z,979.13
2023-09-19T07:30:44.775Z,979.18
2023-09-19T07:31:44.778Z,979.23
2023-09-19T07:32:44.882Z,979.24
2023-09-19T07:33:44.644Z,979.27
2023-09-19T07:34:44.847Z,979.26
2023-09-19T07:35:44.655Z,979.26
2023-09-19T07:36:44.578Z,979.31
2023-09-19T07:37:44.740Z,979.29
2023-09-19T07:38:44.574Z,979.34
2023-09-19T07:39:44.640Z,979.32
2023-09-19T07:40:44.894Z,979.34
2023-09-19T07:41:44.633Z,979.32
2023-09-19T07:42:44.594Z,979.34
2023-09-19T07:43:44.569Z,979.30
2023-09-19T07:44:44.482Z,979.36
2023-09-19T07:45:44.698Z,979.37
2023-09-19T07:46:44.550Z,979.42
2023-09-19T07:47:44.581Z,979.43
2023-09-19T07:48:44.428Z,979.43
2023-09-19T07:49:44.403Z,979.39
2023-09-19T07:50:44.418Z,979.40
2023-09-19T07:51:44.392Z,979.42
2023-09-19T07:52:44.572Z,979.39
2023-09-19T07:53:44.355Z,979.48
2023-09-19T07:54:44.914Z,979.48
2023-09-19T07:55:44.409Z,979.47
2023-09-19T07:56:44.317Z,979.46
2023-09-19T07:57:44.424Z,979.48
2023-09-19T07:58:44.831Z,979.52
2023-09-19T07:59:44.273Z,979.54
2023-09-19T08:00:44.514Z,979.55
2023-09-19T08:01:44.451Z,979.54
2023-09-19T08:02:44.330Z,979.56
2023-09-19T08:03:44.606Z,979.51
2023-09-19T08:04:44.286Z,979.58
2023-09-19T08:05:44.218Z,979.56
2023-09-19T08:06:44.212Z,979.60
2023-09-19T08:07:44.351Z,979.61
2023-09-19T08:08:44.288Z,979.62
2023-09-19T08:09:44.127Z,979.59
2023-09-19T08:10:44.223Z,979.64
2023-09-19T08:11:44.155Z,979.64
2023-09-19T08:12:44.174Z,979.66
2023-09-19T08:13:44.556Z,979.61
2023-09-19T08:14:44.186Z,979.70
2023-09-19T08:15:44.112Z,979.63
2023-09-19T08:16:44.334Z,979.71
2023-09-19T08:17:44.444Z,979.71
2023-09-19T08:18:44.291Z,979.72
2023-09-19T08:19:43.996Z,979.65
2023-09-19T08:20:43.992Z,979.73
2023-09-19T08:21:44.021Z,979.71
2023-09-19T08:22:43.991Z,979.72
2023-09-19T08:23:44.085Z,979.75
2023-09-19T08:24:44.166Z,979.73
2023-09-19T08:25:44.036Z,979.74
2023-09-19T08:26:44.160Z,979.72
2023-09-19T08:27:44.009Z,979.73
2023-09-19T08:28:44.075Z,979.70
2023-09-19T08:29:43.873Z,979.82
2023-09-19T08:30:43.874Z,979.80
2023-09-19T08:31:44.081Z,979.79
2023-09-19T08:32:43.877Z,979.78
2023-09-19T08:33:44.229Z,979.80
2023-09-19T08:34:43.935Z,979.81
2023-09-19T08:35:43.785Z,979.80
2023-09-19T08:36:43.767Z,979.85
2023-09-19T08:37:43.858Z,979.90
2023-09-19T08:38:43.880Z,979.83
2023-09-19T08:39:44.047Z,979.75
2023-09-19T08:40:43.890Z,979.84
2023-09-19T08:41:43.691Z,979.80
2023-09-19T08:42:43.695Z,979.82
2023-09-19T08:43:43.866Z,979.82
2023-09-19T08:44:43.675Z,979.88
2023-09-19T08:45:43.652Z,979.83
2023-09-19T08:46:43.931Z,979.82
2023-09-19T08:47:43.748Z,979.86
2023-09-19T08:48:43.650Z,979.82
2023-09-19T08:49:43.708Z,979.83
2023-09-19T08:50:43.561Z,979.81
2023-09-19T08:51:43.715Z,979.78
2023-09-19T08:52:43.736Z,979.86
2023-09-19T08:53:43.573Z,979.88
2023-09-19T08:54:43.530Z,979.88
2023-09-19T08:55:44.386Z,979.90
2023-09-19T08:56:43.516Z,979.88
2023-09-19T08:57:43.502Z,979.87
2023-09-19T08:58:43.685Z,979.88
2023-09-19T08:59:43.453Z,979.84
2023-09-19T09:00:43.715Z,979.91
2023-09-19T09:01:43.457Z,979.84
2023-09-19T09:02:43.593Z,979.84
2023-09-19T09:03:43.503Z,979.92
2023-09-19T09:04:43.573Z,979.96
2023-09-19T09:05:43.417Z,979.95
2023-09-19T09:06:43.513Z,979.92
2023-09-19T09:07:43.411Z,979.91
2023-09-19T09:08:43.451Z,979.92
2023-09-19T09:09:43.414Z,979.95
2023-09-19T09:10:43.326Z,979.97
2023-09-19T09:11:43.286Z,979.93
2023-09-19T09:12:43.534Z,979.91
2023-09-19T09:13:43.429Z,979.94
2023-09-19T09:14:43.228Z,979.96
2023-09-19T09:15:43.259Z,979.94
2023-09-19T09:16:43.623Z,979.97
2023-09-19T09:17:43.393Z,979.94
2023-09-19T09:18:43.388Z,979.98
2023-09-19T09:19:43.187Z,979.95
2023-09-19T09:20:43.200Z,979.99
2023-09-19T09:21:43.173Z,979.99
2023-09-19T09:22:43.204Z,979.96
2023-09-19T09:23:43.256Z,979.96
2023-09-19T09:24:43.176Z,979.96
2023-09-19T09:25:43.154Z,979.97
2023-09-19T09:26:43.209Z,979.92
2023-09-19T09:27:43.080Z,979.94
2023-09-19T09:28:43.309Z,979.99
2023-09-19T09:29:43.077Z,979.94
2023-09-19T09:30:43.275Z,979.95
2023-09-19T09:31:43.188Z,979.95
2023-09-19T09:32:55.952Z,980.00
2023-09-19T09:33:43.388Z,979.97
2023-09-19T09:34:43.231Z,979.93
2023-09-19T09:35:43.745Z,979.97
2023-09-19T09:36:43.216Z,979.95
2023-09-19T09:37:43.068Z,980.00
2023-09-19T09:38:43.313Z,980.00
2023-09-19T09:39:43.042Z,979.95
2023-09-19T09:40:43.054Z,980.01
2023-09-19T09:41:42.865Z,979.98
2023-09-19T09:42:42.867Z,979.98
2023-09-19T09:43:43.212Z,979.98
2023-09-19T09:44:42.894Z,979.97
2023-09-19T09:45:43.038Z,979.96
2023-09-19T09:46:42.908Z,979.93
2023-09-19T09:47:42.969Z,979.96
2023-09-19T09:48:42.991Z,979.94
2023-09-19T09:49:43.092Z,979.94
2023-09-19T09:50:42.880Z,979.98
2023-09-19T09:51:42.756Z,980.04
2023-09-19T09:52:42.909Z,980.01
2023-09-19T09:53:42.829Z,979.98
2023-09-19T09:54:43.141Z,980.06
2023-09-19T09:55:42.761Z,980.01
2023-09-19T09:56:42.707Z,980.00
2023-09-19T09:57:42.756Z,980.05
2023-09-19T09:58:42.893Z,979.99
2023-09-19T09:59:42.827Z,980.01
2023-09-19T10:00:42.605Z,980.07
2023-09-19T10:01:42.837Z,980.03
2023-09-19T10:02:43.055Z,980.04
2023-09-19T10:03:43.371Z,980.05
2023-09-19T10:04:44.440Z,980.04
2023-09-19T10:05:42.852Z,980.08
2023-09-19T10:06:42.574Z,980.08
2023-09-19T10:07:44.794Z,980.12
2023-09-19T10:08:42.588Z,980.08
2023-09-19T10:09:42.823Z,980.11
2023-09-19T10:10:42.622Z,980.07
2023-09-19T10:11:42.724Z,980.09
2023-09-19T10:12:42.595Z,980.11
2023-09-19T10:13:42.661Z,980.09
2023-09-19T10:14:42.686Z,980.12
2023-09-19T10:15:42.419Z,980.14
2023-09-19T10:16:42.484Z,980.15
2023-09-19T10:17:42.409Z,980.18
2023-09-19T10:18:42.501Z,980.19
2023-09-19T10:19:42.546Z,980.17
2023-09-19T10:20:42.369Z,980.18
2023-09-19T10:21:42.410Z,980.17
2023-09-19T10:22:42.366Z,980.11
2023-09-19T10:23:42.631Z,980.16
2023-09-19T10:24:56.711Z,980.14
2023-09-19T10:25:42.332Z,980.17
2023-09-19T10:26:42.276Z,980.22
2023-09-19T10:27:42.530Z,980.12
2023-09-19T10:28:42.458Z,980.18
2023-09-19T10:29:42.329Z,980.23
2023-09-19T10:30:42.230Z,980.15
2023-09-19T10:31:42.608Z,980.25
2023-09-19T10:32:42.387Z,980.28
2023-09-19T10:33:42.198Z,980.26
2023-09-19T10:34:42.307Z,980.27
2023-09-19T10:35:42.157Z,980.15
2023-09-19T10:36:42.107Z,980.20
2023-09-19T10:37:42.211Z,980.25
2023-09-19T10:38:42.388Z,980.21
2023-09-19T10:39:42.186Z,980.19
2023-09-19T10:40:42.100Z,980.16
2023-09-19T10:41:42.063Z,980.17
2023-09-19T10:42:42.057Z,980.13
2023-09-19T10:43:42.077Z,980.16
2023-09-19T10:44:42.095Z,980.10
2023-09-19T10:45:42.239Z,980.12
2023-09-19T10:46:42.033Z,980.08
2023-09-19T10:47:42.013Z,980.05
2023-09-19T10:48:42.285Z,980.08
2023-09-19T10:49:42.038Z,980.07
2023-09-19T10:50:42.017Z,980.07
2023-09-19T10:51:42.100Z,980.06
2023-09-19T10:52:41.965Z,980.07
2023-09-19T10:53:41.891Z,980.05
2023-09-19T10:54:41.965Z,980.07
2023-09-19T10:55:42.296Z,979.98
2023-09-19T10:56:42.052Z,979.98
2023-09-19T11:01:06.852Z,980.04
2023-09-19T11:02:07.110Z,979.97
2023-09-19T11:03:07.112Z,980.04
2023-09-19T11:04:07.073Z,980.00
2023-09-19T11:05:07.065Z,979.97
2023-09-19T11:06:07.137Z,979.99
2023-09-19T11:07:07.231Z,979.99
2023-09-19T11:08:07.057Z,980.00
2023-09-19T11:09:06.993Z,980.01
2023-09-19T11:10:07.841Z,980.02
2023-09-19T11:11:07.001Z,980.09
2023-09-19T11:12:06.889Z,980.08
2023-09-19T11:13:06.858Z,980.08
2023-09-19T11:14:06.859Z,980.07
2023-09-19T11:15:06.848Z,980.07
2023-09-19T11:16:07.213Z,980.06
2023-09-19T11:17:07.106Z,980.14
2023-09-19T11:18:06.818Z,980.07
2023-09-19T11:19:06.898Z,980.05
2023-09-19T11:20:07.052Z,980.06
2023-09-19T11:21:06.971Z,980.04
2023-09-19T11:22:06.784Z,980.03
2023-09-19T11:23:06.906Z,980.05
2023-09-19T11:24:06.743Z,980.00
2023-09-19T11:25:06.752Z,980.01
2023-09-19T11:26:06.872Z,979.98
2023-09-19T11:27:06.691Z,979.98
2023-09-19T11:28:06.831Z,980.01
2023-09-19T11:29:06.680Z,980.01
2023-09-19T11:30:06.659Z,980.00
2023-09-19T11:31:06.776Z,980.03
2023-09-19T11:32:06.965Z,980.05
2023-09-19T11:33:06.650Z,980.01
2023-09-19T11:34:06.726Z,979.99
2023-09-19T11:35:06.587Z,979.99
2023-09-19T11:36:06.727Z,980.01
2023-09-19T11:37:06.609Z,980.00
2023-09-19T11:38:06.654Z,980.06
2023-09-19T11:39:06.589Z,979.98
2023-09-19T11:40:06.575Z,980.03
2023-09-19T11:41:06.612Z,980.08
2023-09-19T11:42:06.806Z,980.07
2023-09-19T11:43:06.597Z,980.09
2023-09-19T11:44:06.492Z,980.11
2023-09-19T11:45:06.574Z,980.12
2023-09-19T11:46:06.625Z,980.12
2023-09-19T11:47:06.703Z,980.19
2023-09-19T11:48:06.448Z,980.23
2023-09-19T11:49:06.580Z,980.26
2023-09-19T11:50:06.466Z,980.20
2023-09-19T11:51:06.580Z,980.24
2023-09-19T11:52:06.611Z,980.22
2023-09-19T11:53:06.366Z,980.18
2023-09-19T11:54:06.409Z,980.13
2023-09-19T11:55:06.596Z,980.15
2023-09-19T11:56:06.445Z,980.18
2023-09-19T11:57:06.671Z,980.11
2023-09-19T11:58:06.403Z,980.13
2023-09-19T11:59:06.293Z,980.08
2023-09-19T12:00:06.265Z,980.10
2023-09-19T12:01:06.388Z,980.04
2023-09-19T12:02:06.444Z,980.00
2023-09-19T12:03:06.369Z,979.97
2023-09-19T12:04:06.496Z,980.00
2023-09-19T12:05:06.284Z,979.92
2023-09-19T12:06:06.403Z,979.97
2023-09-19T12:07:06.323Z,979.94
2023-09-19T12:08:08.034Z,979.96
2023-09-19T12:09:06.281Z,979.86
2023-09-19T12:10:06.216Z,979.93
2023-09-19T12:11:06.153Z,979.98
2023-09-19T12:12:06.207Z,980.01
2023-09-19T12:13:06.374Z,979.99
2023-09-19T12:14:06.134Z,979.92
2023-09-19T12:15:06.057Z,979.87
2023-09-19T12:16:06.158Z,979.94
2023-09-19T12:17:06.228Z,979.94
2023-09-19T12:18:06.115Z,979.94
2023-09-19T12:19:06.006Z,980.02
2023-09-19T12:20:06.085Z,980.02
2023-09-19T12:21:06.054Z,980.01
2023-09-19T12:22:06.240Z,980.00
2023-09-19T12:23:05.966Z,980.04
2023-09-19T12:24:06.084Z,980.10
2023-09-19T12:25:05.937Z,980.08
2023-09-19T12:26:05.920Z,980.05
2023-09-19T12:27:06.063Z,980.05
2023-09-19T12:28:05.863Z,980.01
2023-09-19T12:29:06.854Z,980.00
2023-09-19T12:30:17.063Z,979.97
2023-09-19T12:31:05.835Z,979.99
2023-09-19T12:32:06.008Z,979.93